Time,TemperatureF,DewpointF,PressureIn,WindDirection,WindDirectionDegrees,WindSpeedMPH,WindSpeedGustMPH,Humidity,HourlyPrecipIn,Conditions,Clouds,dailyrainin,SolarRadiationWatts/m^2,SoftwareType,DateUTC
2013-07-19 12:52:00,89.0,71.0,29.87,SSW,213,8.0,19.0,56,-99.99,,,-99.99,810.000000,,2013-07-19 16:52:00,
2013-07-19 13:02:00,90.0,72.0,29.86,WSW,252,9.0,23.0,56,-99.99,,,-99.99,844.000000,,2013-07-19 17:02:00,
2013-07-19 13:43:00,91.0,71.0,29.84,WSW,243,11.0,18.0,52,-99.99,,,-99.99,874.000000,,2013-07-19 17:43:00,
2013-07-19 16:43:00,92.0,72.0,29.76,SW,221,7.0,20.0,52,-99.99,,,-99.99,749.000000,,2013-07-19 20:43:00,
2013-07-19 18:42:00,91.0,73.0,29.74,SW,223,6.0,17.0,56,-99.99,,,-99.99,397.000000,,2013-07-19 22:42:00,
2013-07-19 18:52:00,91.0,73.0,29.74,WSW,244,9.0,16.0,56,-99.99,,,-99.99,366.000000,,2013-07-19 22:52:00,
2013-07-19 19:43:00,90.0,74.0,29.73,SW,232,4.0,14.0,59,-99.99,,,-99.99,197.000000,,2013-07-19 23:43:00,
2013-07-19 19:52:00,89.0,73.0,29.73,SW,236,5.0,13.0,60,-99.99,,,-99.99,176.000000,,2013-07-19 23:52:00,
2013-07-19 20:01:00,89.0,73.0,29.73,West,267,4.0,16.0,60,-99.99,,,-99.99,144.000000,,2013-07-20 00:01:00,
2013-07-19 20:11:00,89.0,74.0,29.73,SSW,211,6.0,16.0,62,-99.99,,,-99.99,118.000000,,2013-07-20 00:11:00,
2013-07-19 20:22:00,88.0,73.0,29.75,SSW,196,7.0,13.0,62,-99.99,,,-99.99,95.000000,,2013-07-20 00:22:00,
2013-07-19 20:32:00,88.0,74.0,29.75,WSW,244,6.0,13.0,63,-99.99,,,-99.99,72.000000,,2013-07-20 00:32:00,
2013-07-19 20:43:00,87.0,73.0,29.75,SW,231,6.0,12.0,64,-99.99,,,-99.99,49.000000,,2013-07-20 00:43:00,
2013-07-19 20:52:00,87.0,74.0,29.75,WSW,256,5.0,11.0,65,-99.99,,,-99.99,33.000000,,2013-07-20 00:52:00,
2013-07-19 21:01:00,86.0,73.0,29.75,SSW,207,3.0,10.0,66,-99.99,,,-99.99,18.000000,,2013-07-20 01:01:00,
2013-07-19 21:11:00,86.0,74.0,29.75,SW,227,5.0,9.0,67,-99.99,,,-99.99,11.000000,,2013-07-20 01:11:00,
2013-07-19 21:22:00,85.0,73.0,29.75,SSW,194,7.0,12.0,68,-99.99,,,-99.99,0.000000,,2013-07-20 01:22:00,
2013-07-19 21:32:00,85.0,74.0,29.75,SSW,212,5.0,13.0,69,-99.99,,,-99.99,0.000000,,2013-07-20 01:32:00,
2013-07-19 21:52:00,84.0,73.0,29.75,SW,221,7.0,12.0,70,-99.99,,,-99.99,0.000000,,2013-07-20 01:52:00,
2013-07-19 22:02:00,83.0,73.0,29.75,SW,229,7.0,11.0,71,-99.99,,,-99.99,0.000000,,2013-07-20 02:02:00,
2013-07-19 22:11:00,83.0,73.0,29.75,SW,222,4.0,13.0,71,-99.99,,,-99.99,0.000000,,2013-07-20 02:11:00,
2013-07-19 22:33:00,82.0,72.0,29.75,SW,221,6.0,14.0,72,-99.99,,,-99.99,0.000000,,2013-07-20 02:33:00,
2013-07-19 22:43:00,82.0,72.0,29.75,WSW,254,7.0,15.0,72,-99.99,,,-99.99,0.000000,,2013-07-20 02:43:00,
2013-07-19 22:52:00,82.0,72.0,29.75,SW,225,9.0,13.0,72,-99.99,,,-99.99,0.000000,,2013-07-20 02:52:00,
2013-07-19 23:44:00,82.0,72.0,29.75,SW,216,5.0,15.0,72,-99.99,,,-99.99,0.000000,,2013-07-20 03:44:00,